createdAt,value
2022-10-02T00:01:56.545Z,98740.44
2022-10-02T00:04:32.725Z,98725.59
2022-10-02T00:07:06.281Z,98728.13
2022-10-02T00:09:58.079Z,98744.56
2022-10-02T00:12:29.337Z,98742.75
2022-10-02T00:15:06.578Z,98726.38
2022-10-02T00:17:38.118Z,98755.81
2022-10-02T00:20:13.038Z,98754.97
2022-10-02T00:22:58.871Z,98740.38
2022-10-02T00:25:34.731Z,98743.00
2022-10-02T00:28:25.323Z,98749.91
2022-10-02T00:31:05.546Z,98750.75
2022-10-02T00:33:59.021Z,98762.78
2022-10-02T00:37:14.513Z,98758.44
2022-10-02T00:40:09.371Z,98764.44
2022-10-02T00:42:49.338Z,98754.81
2022-10-02T00:45:34.819Z,98753.09
2022-10-02T00:48:14.034Z,98759.09
2022-10-02T00:51:02.239Z,98753.00
2022-10-02T00:53:51.328Z,98752.06
2022-10-02T00:56:37.440Z,98754.56
2022-10-02T00:59:26.718Z,98750.25
2022-10-02T01:01:54.150Z,98746.75
2022-10-02T01:04:31.780Z,98742.31
2022-10-02T01:06:59.966Z,98741.31
2022-10-02T01:09:28.050Z,98742.91
2022-10-02T01:11:56.087Z,98737.75
2022-10-02T01:14:36.285Z,98748.00
2022-10-02T01:17:07.215Z,98742.72
2022-10-02T01:19:38.964Z,98755.56
2022-10-02T01:22:24.415Z,98763.31
2022-10-02T01:24:56.625Z,98743.38
2022-10-02T01:27:25.565Z,98759.63
2022-10-02T01:30:01.029Z,98763.94
2022-10-02T01:32:31.851Z,98755.28
2022-10-02T01:35:00.998Z,98758.72
2022-10-02T01:37:32.821Z,98766.44
2022-10-02T01:40:06.872Z,98777.66
2022-10-02T01:42:34.591Z,98761.25
2022-10-02T01:45:04.781Z,98771.47
2022-10-02T01:48:07.099Z,98770.69
2022-10-02T01:51:16.043Z,98778.47
2022-10-02T01:54:01.907Z,98781.00
2022-10-02T01:56:44.165Z,98785.19
2022-10-02T01:59:38.915Z,98779.19
2022-10-02T02:02:18.417Z,98773.19
2022-10-02T02:04:51.798Z,98779.28
2022-10-02T02:07:35.421Z,98789.59
2022-10-02T02:10:17.395Z,98776.69
2022-10-02T02:12:56.042Z,98774.91
2022-10-02T02:15:35.134Z,98769.72
2022-10-02T02:18:29.697Z,98762.88
2022-10-02T02:21:05.186Z,98777.59
2022-10-02T02:23:36.063Z,98786.13
2022-10-02T02:26:09.153Z,98775.84
2022-10-02T02:28:40.579Z,98770.78
2022-10-02T02:31:11.938Z,98775.00
2022-10-02T02:33:46.006Z,98787.09
2022-10-02T02:36:18.153Z,98786.16
2022-10-02T02:38:50.820Z,98782.72
2022-10-02T02:41:26.740Z,98784.47
2022-10-02T02:44:13.143Z,98777.50
2022-10-02T02:47:12.894Z,98779.16
2022-10-02T02:50:02.120Z,98779.25
2022-10-02T02:52:37.904Z,98770.69
2022-10-02T02:55:11.049Z,98776.69
2022-10-02T02:57:45.484Z,98776.63
2022-10-02T03:00:15.986Z,98773.16
2022-10-02T03:02:43.538Z,98766.22
2022-10-02T03:05:14.489Z,98777.56
2022-10-02T03:07:54.623Z,98766.31
2022-10-02T03:10:33.556Z,98776.63
2022-10-02T03:13:16.918Z,98775.00
2022-10-02T03:16:21.741Z,98781.03
2022-10-02T03:19:36.776Z,98774.19
2022-10-02T03:22:44.799Z,98784.47
2022-10-02T03:25:24.260Z,98795.59
2022-10-02T03:28:02.101Z,98787.78
2022-10-02T03:30:31.727Z,98798.84
2022-10-02T03:33:01.197Z,98794.50
2022-10-02T03:35:30.086Z,98798.03
2022-10-02T03:38:03.381Z,98795.44
2022-10-02T03:40:31.001Z,98801.47
2022-10-02T03:42:58.961Z,98796.31
2022-10-02T03:45:50.001Z,98791.97
2022-10-02T03:48:15.966Z,98803.09
2022-10-02T03:50:44.035Z,98797.91
2022-10-02T03:53:17.750Z,98785.06
2022-10-02T03:56:08.784Z,98799.75
2022-10-02T03:58:41.008Z,98784.97
2022-10-02T04:01:17.105Z,98791.84
2022-10-02T04:03:56.129Z,98800.44
2022-10-02T04:06:40.627Z,98799.56
2022-10-02T04:09:18.742Z,98795.25
2022-10-02T04:12:04.151Z,98802.25
2022-10-02T04:14:46.094Z,98808.25
2022-10-02T04:17:20.734Z,98806.59
2022-10-02T04:19:59.980Z,98817.91
2022-10-02T04:22:33.483Z,98816.97
2022-10-02T04:25:19.853Z,98811.06
2022-10-02T04:27:53.329Z,98822.19
2022-10-02T04:30:21.387Z,98823.03
2022-10-02T04:32:49.411Z,98803.28
2022-10-02T04:35:44.341Z,98806.66
2022-10-02T04:38:11.746Z,98829.13
2022-10-02T04:40:50.929Z,98823.06
2022-10-02T04:43:49.840Z,98832.63
2022-10-02T04:46:36.119Z,98830.91
2022-10-02T04:49:22.184Z,98833.56
2022-10-02T04:52:07.544Z,98833.56
2022-10-02T04:54:56.662Z,98837.84
2022-10-02T04:57:36.130Z,98825.00
2022-10-02T05:00:06.971Z,98819.75
2022-10-02T05:02:40.179Z,98819.75
2022-10-02T05:05:26.087Z,98799.91
2022-10-02T05:08:11.998Z,98813.63
2022-10-02T05:11:13.374Z,98805.06
2022-10-02T05:13:52.770Z,98810.06
2022-10-02T05:16:29.381Z,98817.75
2022-10-02T05:19:18.314Z,98822.88
2022-10-02T05:22:15.363Z,98807.38
2022-10-02T05:25:23.613Z,98822.06
2022-10-02T05:28:26.498Z,98834.06
2022-10-02T05:31:13.449Z,98816.69
2022-10-02T05:34:06.268Z,98819.38
2022-10-02T05:36:49.602Z,98823.75
2022-10-02T05:39:43.951Z,98817.00
2022-10-02T05:42:29.635Z,98832.41
2022-10-02T05:45:25.277Z,98820.41
2022-10-02T05:48:02.762Z,98833.22
2022-10-02T05:50:35.229Z,98839.25
2022-10-02T05:53:08.270Z,98827.22
2022-10-02T05:56:02.363Z,98827.13
2022-10-02T05:58:35.679Z,98828.84
2022-10-02T06:01:21.619Z,98833.28
2022-10-02T06:04:11.994Z,98824.69
2022-10-02T06:06:48.871Z,98829.81
2022-10-02T06:09:48.195Z,98829.13
2022-10-02T06:12:30.727Z,98836.78
2022-10-02T06:15:19.347Z,98846.22
2022-10-02T06:17:55.869Z,98829.06
2022-10-02T06:20:40.527Z,98842.91
2022-10-02T06:23:15.250Z,98842.78
2022-10-02T06:26:11.904Z,98860.84
2022-10-02T06:28:44.232Z,98849.50
2022-10-02T06:31:21.392Z,98856.25
2022-10-02T06:33:48.950Z,98857.91
2022-10-02T06:36:40.355Z,98860.63
2022-10-02T06:39:58.631Z,98860.44
2022-10-02T06:42:38.414Z,98865.69
2022-10-02T06:45:06.367Z,98871.59
2022-10-02T06:47:39.755Z,98869.97
2022-10-02T06:50:39.623Z,98859.69
2022-10-02T06:53:24.467Z,98870.13
2022-10-02T06:56:10.145Z,98859.75
2022-10-02T06:59:14.581Z,98854.78
2022-10-02T07:02:04.942Z,98861.53
2022-10-02T07:04:57.166Z,98861.56
2022-10-02T07:07:39.898Z,98865.81
2022-10-02T07:10:30.407Z,98869.38
2022-10-02T07:13:07.357Z,98872.72
2022-10-02T07:16:09.170Z,98868.47
2022-10-02T07:18:50.940Z,98860.84
2022-10-02T07:21:33.801Z,98868.03
2022-10-02T07:24:11.235Z,98862.25
2022-10-02T07:26:58.741Z,98858.47
2022-10-02T07:29:34.873Z,98848.34
2022-10-02T07:32:17.701Z,98846.22
2022-10-02T07:35:12.799Z,98838.97
2022-10-02T07:38:01.857Z,98847.31
2022-10-02T07:40:47.894Z,98847.50
2022-10-02T07:43:46.874Z,98836.34
2022-10-02T07:46:19.225Z,98846.69
2022-10-02T07:49:14.151Z,98839.66
2022-10-02T07:51:51.059Z,98842.81
2022-10-02T07:54:36.534Z,98829.44
2022-10-02T07:57:16.822Z,98837.44
2022-10-02T07:59:46.443Z,98830.97
2022-10-02T08:02:28.906Z,98837.72
2022-10-02T08:05:05.547Z,98830.84
2022-10-02T08:07:33.370Z,98837.38
2022-10-02T08:10:06.228Z,98837.94
2022-10-02T08:12:45.790Z,98846.63
2022-10-02T08:15:20.337Z,98852.25
2022-10-02T08:18:22.739Z,98850.78
2022-10-02T08:20:49.626Z,98846.63
2022-10-02T08:23:36.747Z,98837.06
2022-10-02T08:26:21.584Z,98837.13
2022-10-02T08:28:56.971Z,98842.50
2022-10-02T08:31:25.454Z,98843.31
2022-10-02T08:33:53.119Z,98843.47
2022-10-02T08:36:43.681Z,98841.56
2022-10-02T08:39:53.303Z,98834.72
2022-10-02T08:42:43.152Z,98844.28
2022-10-02T08:45:47.543Z,98844.38
2022-10-02T08:48:38.970Z,98853.97
2022-10-02T08:51:49.526Z,98847.84
2022-10-02T08:54:38.834Z,98860.53
2022-10-02T08:57:28.049Z,98853.91
2022-10-02T09:00:26.077Z,98859.03
2022-10-02T09:02:57.309Z,98853.19
2022-10-02T09:05:43.099Z,98847.47
2022-10-02T09:08:58.535Z,98855.25
2022-10-02T09:12:11.368Z,98859.59
2022-10-02T09:14:51.529Z,98869.16
2022-10-02T09:17:48.342Z,98865.69
2022-10-02T09:20:33.978Z,98865.63
2022-10-02T09:23:20.121Z,98871.59
2022-10-02T09:26:24.750Z,98872.41
2022-10-02T09:29:07.339Z,98861.13
2022-10-02T09:31:53.631Z,98858.63
2022-10-02T09:34:42.085Z,98859.50
2022-10-02T09:37:28.439Z,98865.53
2022-10-02T09:40:26.966Z,98873.22
2022-10-02T09:43:05.984Z,98874.03
2022-10-02T09:45:45.337Z,98882.59
2022-10-02T09:48:49.995Z,98884.28
2022-10-02T09:51:40.259Z,98884.28
2022-10-02T09:54:32.396Z,98880.75
2022-10-02T09:57:07.036Z,98881.59
2022-10-02T09:59:58.996Z,98879.88
2022-10-02T10:02:54.036Z,98883.25
2022-10-02T10:05:42.859Z,98878.03
2022-10-02T10:09:04.198Z,98880.78
2022-10-02T10:11:49.282Z,98876.47
2022-10-02T10:14:41.123Z,98870.56
2022-10-02T10:17:45.778Z,98867.16
2022-10-02T10:20:37.473Z,98860.28
2022-10-02T10:23:51.366Z,98853.44
2022-10-02T10:26:44.190Z,98866.41
2022-10-02T10:29:21.471Z,98865.50
2022-10-02T10:32:20.973Z,98871.59
2022-10-02T10:35:06.987Z,98869.06
2022-10-02T10:38:08.471Z,98864.72
2022-10-02T10:40:58.814Z,98869.00
2022-10-02T10:43:44.414Z,98862.97
2022-10-02T10:46:33.134Z,98854.28
2022-10-02T10:49:03.658Z,98852.53
2022-10-02T10:51:43.458Z,98853.50
2022-10-02T10:54:27.199Z,98855.34
2022-10-02T10:57:04.943Z,98849.25
2022-10-02T10:59:49.486Z,98859.63
2022-10-02T11:02:53.316Z,98866.53
2022-10-02T11:05:58.077Z,98867.41
2022-10-02T11:08:47.371Z,98864.84
2022-10-02T11:11:33.063Z,98857.94
2022-10-02T11:14:06.626Z,98869.94
2022-10-02T11:17:05.010Z,98864.81
2022-10-02T11:20:00.718Z,98867.41
2022-10-02T11:22:57.184Z,98839.72
2022-10-02T11:25:52.853Z,98839.44
2022-10-02T11:28:32.657Z,98850.00
2022-10-02T11:31:27.659Z,98843.69
2022-10-02T11:34:09.896Z,98836.34
2022-10-02T11:36:43.284Z,98839.56
2022-10-02T11:39:32.486Z,98841.38
2022-10-02T11:42:16.635Z,98837.97
2022-10-02T11:45:03.592Z,98838.44
2022-10-02T11:47:59.774Z,98837.78
2022-10-02T11:50:45.885Z,98842.16
2022-10-02T11:53:22.254Z,98842.13
2022-10-02T11:56:08.124Z,98836.88
2022-10-02T11:58:42.134Z,98837.84
2022-10-02T12:01:32.237Z,98826.38
2022-10-02T12:04:04.247Z,98837.41
2022-10-02T12:07:12.027Z,98805.97
2022-10-02T12:09:45.254Z,98828.78
2022-10-02T12:12:37.076Z,98830.97
2022-10-02T12:15:10.823Z,98810.56
2022-10-02T12:17:45.865Z,98804.38
2022-10-02T12:21:03.986Z,98800.34
2022-10-02T12:24:08.766Z,98792.94
2022-10-02T12:26:59.017Z,98788.94
2022-10-02T12:30:13.929Z,98783.69
2022-10-02T12:32:51.080Z,98787.75
2022-10-02T12:35:33.524Z,98775.56
2022-10-02T12:38:26.997Z,98769.25
2022-10-02T12:41:18.987Z,98779.72
2022-10-02T12:43:55.665Z,98774.22
2022-10-02T12:46:29.195Z,98769.53
2022-10-02T12:49:25.397Z,98776.28
2022-10-02T12:51:55.516Z,98775.59
2022-10-02T12:55:00.211Z,98779.38
2022-10-02T12:58:01.169Z,98778.81
2022-10-02T13:00:47.254Z,98768.59
2022-10-02T13:03:47.576Z,98758.41
2022-10-02T13:07:01.397Z,98759.31
2022-10-02T13:10:04.166Z,98756.84
2022-10-02T13:12:50.975Z,98768.91
2022-10-02T13:15:54.893Z,98756.88
2022-10-02T13:18:22.916Z,98766.41
2022-10-02T13:21:02.900Z,98768.13
2022-10-02T13:23:42.036Z,98766.38
2022-10-02T13:26:42.590Z,98752.59
2022-10-02T13:29:40.639Z,98766.41
2022-10-02T13:32:11.020Z,98757.75
2022-10-02T13:35:19.940Z,98762.91
2022-10-02T13:38:06.821Z,98760.25
2022-10-02T13:40:43.362Z,98756.78
2022-10-02T13:43:34.613Z,98749.88
2022-10-02T13:46:17.979Z,98733.47
2022-10-02T13:48:48.279Z,98735.16
2022-10-02T13:51:53.945Z,98737.72
2022-10-02T13:54:37.403Z,98733.31
2022-10-02T13:57:22.178Z,98732.47
2022-10-02T14:00:17.175Z,98732.44
2022-10-02T14:03:09.099Z,98722.09
2022-10-02T14:05:58.224Z,98721.22
2022-10-02T14:08:46.859Z,98710.91
2022-10-02T14:11:30.486Z,98717.72
2022-10-02T14:14:09.792Z,98709.97
2022-10-02T14:16:51.961Z,98704.84
2022-10-02T14:19:33.903Z,98709.09
2022-10-02T14:22:18.932Z,98700.50
2022-10-02T14:25:15.313Z,98691.84
2022-10-02T14:27:51.778Z,98695.31
2022-10-02T14:30:22.628Z,98695.28
2022-10-02T14:33:30.086Z,98694.44
2022-10-02T14:36:11.811Z,98696.13
2022-10-02T14:39:08.770Z,98696.97
2022-10-02T14:42:09.265Z,98688.38
2022-10-02T14:45:12.337Z,98696.13
2022-10-02T14:51:11.054Z,98679.75
2022-10-02T14:53:49.425Z,98680.63
2022-10-02T14:56:28.817Z,98678.91
2022-10-02T14:59:11.669Z,98676.28
2022-10-02T15:01:55.541Z,98682.31
2022-10-02T15:04:36.646Z,98668.53
2022-10-02T15:07:12.322Z,98678.84
2022-10-02T15:09:48.881Z,98686.59
2022-10-02T15:12:30.033Z,98666.75
2022-10-02T15:15:12.240Z,98671.09
2022-10-02T15:17:56.894Z,98672.78
2022-10-02T15:20:24.586Z,98662.50
2022-10-02T15:23:06.924Z,98667.66
2022-10-02T15:25:52.592Z,98667.63
2022-10-02T15:28:38.465Z,98659.88
2022-10-02T15:31:18.982Z,98664.19
2022-10-02T15:34:12.817Z,98654.69
2022-10-02T15:37:08.692Z,98661.59
2022-10-02T15:39:44.203Z,98659.06
2022-10-02T15:42:24.783Z,98653.00
2022-10-02T15:45:11.646Z,98657.34
2022-10-02T15:48:02.273Z,98649.56
2022-10-02T15:50:57.651Z,98637.53
2022-10-02T15:53:52.058Z,98628.91
2022-10-02T15:56:34.634Z,98634.06
2022-10-02T15:59:21.688Z,98622.84
2022-10-02T16:02:16.196Z,98620.25
2022-10-02T16:05:10.848Z,98614.19
2022-10-02T16:07:56.801Z,98611.56
2022-10-02T16:10:37.131Z,98600.34
2022-10-02T16:13:13.540Z,98611.53
2022-10-02T16:16:00.886Z,98603.84
2022-10-02T16:19:01.291Z,98603.84
2022-10-02T16:21:52.211Z,98587.44
2022-10-02T16:25:18.409Z,98595.22
2022-10-02T16:28:09.279Z,98594.38
2022-10-02T16:30:45.980Z,98597.72
2022-10-02T16:33:19.961Z,98587.44
2022-10-02T16:36:17.875Z,98578.81
2022-10-02T16:38:53.056Z,98577.13
2022-10-02T16:41:38.853Z,98581.41
2022-10-02T16:44:33.699Z,98574.50
2022-10-02T16:47:13.825Z,98586.56
2022-10-02T16:49:57.383Z,98575.38
2022-10-02T16:52:33.626Z,98579.66
2022-10-02T16:55:13.162Z,98579.69
2022-10-02T16:57:45.444Z,98567.63
2022-10-02T17:00:24.536Z,98568.47
2022-10-02T17:03:21.641Z,98566.75
2022-10-02T17:05:54.204Z,98557.25
2022-10-02T17:08:41.758Z,98562.41
2022-10-02T17:11:20.726Z,98555.53
2022-10-02T17:14:16.583Z,98548.69
2022-10-02T17:17:05.734Z,98541.78
2022-10-02T17:19:56.210Z,98533.19
2022-10-02T17:22:44.303Z,98531.47
2022-10-02T17:25:27.143Z,98531.47
2022-10-02T17:28:23.123Z,98533.19
2022-10-02T17:30:59.348Z,98522.00
2022-10-02T17:33:32.419Z,98519.38
2022-10-02T17:36:20.239Z,98510.81
2022-10-02T17:39:10.979Z,98497.94
2022-10-02T17:41:42.629Z,98488.50
2022-10-02T17:44:11.168Z,98480.75
2022-10-02T17:46:49.777Z,98485.06
2022-10-02T17:49:39.215Z,98481.59
2022-10-02T17:52:46.911Z,98484.22
2022-10-02T17:55:48.366Z,98487.63
2022-10-02T17:58:37.084Z,98491.06
2022-10-02T18:01:17.828Z,98491.00
2022-10-02T18:04:03.686Z,98448.00
2022-10-02T18:07:09.815Z,98452.28
2022-10-02T18:09:56.802Z,98448.75
2022-10-02T18:12:42.399Z,98460.72
2022-10-02T18:15:37.878Z,98453.81
2022-10-02T18:18:30.378Z,98450.38
2022-10-02T18:21:20.670Z,98448.63
2022-10-02T18:23:48.240Z,98437.38
2022-10-02T18:26:42.309Z,98435.63
2022-10-02T18:29:15.621Z,98439.06
2022-10-02T18:32:19.386Z,98426.13
2022-10-02T18:35:04.196Z,98406.38
2022-10-02T18:37:58.286Z,98394.34
2022-10-02T18:40:30.325Z,98401.22
2022-10-02T18:43:31.021Z,98386.63
2022-10-02T18:46:13.624Z,98365.09
2022-10-02T18:48:59.950Z,98367.72
2022-10-02T18:52:05.413Z,98357.41
2022-10-02T18:54:41.788Z,98346.25
2022-10-02T18:57:09.183Z,98341.03
2022-10-02T18:59:45.777Z,98341.03
2022-10-02T19:03:00.681Z,98339.34
2022-10-02T19:05:35.463Z,98314.44
2022-10-02T19:08:02.901Z,98311.81
2022-10-02T19:10:33.161Z,98305.81
2022-10-02T19:13:23.451Z,98309.25
2022-10-02T19:15:53.476Z,98296.38
2022-10-02T19:18:21.290Z,98292.94
2022-10-02T19:21:14.313Z,98290.41
2022-10-02T19:23:56.826Z,98304.13
2022-10-02T19:26:40.749Z,98330.72
2022-10-02T19:29:26.120Z,98330.72
2022-10-02T19:31:56.697Z,98349.59
2022-10-02T19:34:30.641Z,98345.25
2022-10-02T19:37:04.336Z,98296.38
2022-10-02T19:39:33.406Z,98274.91
2022-10-02T19:42:07.937Z,98253.47
2022-10-02T19:44:53.470Z,98238.00
2022-10-02T19:47:45.706Z,98218.25
2022-10-02T19:50:23.374Z,98232.00
2022-10-02T19:52:58.323Z,98247.47
2022-10-02T19:55:30.999Z,98240.56
2022-10-02T19:58:09.226Z,98212.25
2022-10-02T20:00:40.459Z,98243.16
2022-10-02T20:03:20.056Z,98214.84
2022-10-02T20:05:51.690Z,98231.97
2022-10-02T20:08:36.908Z,98255.19
2022-10-02T20:11:11.138Z,98265.50
2022-10-02T20:13:49.845Z,98273.22
2022-10-02T20:16:42.967Z,98272.38
2022-10-02T20:19:39.399Z,98256.94
2022-10-02T20:22:45.332Z,98242.38
2022-10-02T20:25:42.294Z,98259.56
2022-10-02T20:28:52.235Z,98257.00
2022-10-02T20:31:40.248Z,98244.94
2022-10-02T20:34:21.636Z,98231.22
2022-10-02T20:37:04.000Z,98213.16
2022-10-02T20:39:42.275Z,98216.63
2022-10-02T20:42:20.091Z,98207.16
2022-10-02T20:44:47.570Z,98200.28
2022-10-02T20:47:50.103Z,98191.72
2022-10-02T20:50:46.859Z,98176.25
2022-10-02T20:53:52.581Z,98159.06
2022-10-02T20:56:39.431Z,98153.06
2022-10-02T20:59:27.079Z,98153.06
2022-10-02T21:02:18.013Z,98143.63
2022-10-02T21:05:10.926Z,98137.63
2022-10-02T21:08:00.167Z,98128.13
2022-10-02T21:10:45.632Z,98120.41
2022-10-02T21:13:13.042Z,98113.53
2022-10-02T21:16:17.566Z,98121.28
2022-10-02T21:19:04.951Z,98117.84
2022-10-02T21:21:38.304Z,98110.97
2022-10-02T21:24:05.631Z,98105.81
2022-10-02T21:26:55.378Z,98114.38
2022-10-02T21:30:09.130Z,98123.84
2022-10-02T21:32:49.390Z,98114.41
2022-10-02T21:35:46.233Z,98117.00
2022-10-02T21:38:44.526Z,98110.97
2022-10-02T21:41:23.852Z,98114.38
2022-10-02T21:44:10.289Z,98106.69
2022-10-02T21:46:41.368Z,98109.28
2022-10-02T21:49:47.427Z,98110.13
2022-10-02T21:52:42.193Z,98107.53
2022-10-02T21:55:46.774Z,98105.81
2022-10-02T21:58:42.014Z,98091.19
2022-10-02T22:02:07.750Z,98087.72
2022-10-02T22:04:53.824Z,98077.41
2022-10-02T22:07:35.519Z,98073.13
2022-10-02T22:10:20.859Z,98067.97
2022-10-02T22:13:23.882Z,98067.97
2022-10-02T22:15:55.336Z,98060.22
2022-10-02T22:18:52.978Z,98062.78
2022-10-02T22:21:20.390Z,98067.09
2022-10-02T22:24:09.187Z,98058.47
2022-10-02T22:27:01.326Z,98052.47
2022-10-02T22:29:48.576Z,98049.88
2022-10-02T22:33:00.195Z,98036.97
2022-10-02T22:35:36.014Z,98035.22
2022-10-02T22:38:26.094Z,98036.94
2022-10-02T22:41:02.522Z,98029.19
2022-10-02T22:43:52.979Z,98029.19
2022-10-02T22:46:47.041Z,98026.63
2022-10-02T22:49:43.243Z,98028.31
2022-10-02T22:52:20.708Z,98011.09
2022-10-02T22:55:00.136Z,98017.94
2022-10-02T22:57:33.459Z,98009.34
2022-10-02T23:00:12.342Z,98005.88
2022-10-02T23:03:02.461Z,97995.53
2022-10-02T23:06:09.093Z,97993.72
2022-10-02T23:08:36.505Z,97979.09
2022-10-02T23:11:25.483Z,97971.34
2022-10-02T23:14:00.164Z,97969.56
2022-10-02T23:16:48.214Z,97958.34
2022-10-02T23:19:38.832Z,97947.16
2022-10-02T23:22:23.526Z,97946.28
2022-10-02T23:25:18.506Z,97949.69
2022-10-02T23:28:32.244Z,97944.53
2022-10-02T23:31:11.584Z,97949.72
2022-10-02T23:34:07.703Z,97928.94
2022-10-02T23:36:45.997Z,97933.25
2022-10-02T23:39:26.302Z,97916.03
2022-10-02T23:41:58.489Z,97918.63
2022-10-02T23:44:55.922Z,97903.97
2022-10-02T23:47:37.358Z,97897.09
2022-10-02T23:50:22.028Z,97883.25
2022-10-02T23:53:01.328Z,97892.69
2022-10-02T23:56:07.871Z,97886.59
2022-10-02T23:59:00.721Z,97878.03
